Time;durP1;ratioP1;P1;durP2;ratioP2;P2;SDS_P1;SDS_P2;PMS_P1;PMS_P2;Temp;Humidity;BMP_temperature;BMP_pressure;BME280_temperature;BME280_humidity;BME280_pressure;Samples;Min_cycle;Max_cycle;Signal;HPM_P1;HPM_P2
2023/09/06 06:32:55;;;;;;;;;;;;;;;;;;5939673;22;19918;-59
2023/09/06 06:35:21;;;;;;;;;;;;;;;;;;5045400;28;20030;-59
2023/09/06 06:37:49;;;;;;;;;;;;;;;;;;5048280;28;19940;-59
2023/09/06 16:18:51;;;;;;;;;;;;;;;;;;5238853;23;19935;-58
2023/09/06 16:21:18;;;;;;;;;;;;;;;;;;4837409;29;20010;-59
2023/09/06 16:23:44;;;;;;;;;;;;;;;;;;4844923;29;19929;-59
2023/09/06 16:26:10;;;;;;;;;;;;;;;;;;4843652;29;19935;-59
2023/09/06 16:28:37;;;;;;;;;;;;;;;;;;4853690;29;19950;-59
2023/09/06 16:31:03;;;;;;;;;;;;;;;;;;4859839;29;19928;-59
2023/09/06 16:33:32;;;;;;;;;;;;;;;;;;4863172;29;19935;-59
2023/09/06 16:35:58;;;;;;;;;;;;;;;;;;4862489;29;19984;-59
2023/09/06 16:38:25;;;;;;;;;;;;;;;;;;4852565;29;20378;-59
2023/09/06 16:40:51;;;;;;;;;;;;;;;;;;4862307;29;19975;-59
2023/09/06 16:43:18;;;;;;;;;;;;;;;;;;4863070;29;20283;-59
2023/09/06 16:45:44;;;;;;;;;;;;;;;;;;4862586;29;19928;-59
2023/09/06 16:48:11;;;;;;;;;;;;;;;;;;4855638;29;19928;-58
2023/09/06 16:50:37;;;;;;;;;;;;;;;;;;4862327;29;19928;-59
2023/09/06 16:53:06;;;;;;;;;;;;;;;;;;4862646;29;20350;-59
2023/09/06 16:55:32;;;;;;;;;;;;;;;;;;4862465;29;19974;-59
2023/09/06 16:57:59;;;;;;;;;;;;;;;;;;4859053;29;19954;-59
2023/09/06 17:00:27;;;;;;;;;;;;;;;;;;4841627;29;19935;-58
2023/09/06 17:02:53;;;;;;;;;;;;;;;;;;4821589;29;19938;-58
2023/09/06 17:05:22;;;;;;;;;;;;;;;;;;4831054;29;19988;-58
2023/09/06 17:07:51;;;;;;;;;;;;;;;;;;4837622;29;20398;-58
2023/09/06 17:10:19;;;;;;;;;;;;;;;;;;4831407;29;19932;-58
2023/09/06 17:12:45;;;;;;;;;;;;;;;;;;4834749;29;20038;-58
2023/09/06 17:15:12;;;;;;;;;;;;;;;;;;4816526;29;20060;-58
2023/09/06 17:17:38;;;;;;;;;;;;;;;;;;4830048;29;20382;-59
2023/09/06 17:20:04;;;;;;;;;;;;;;;;;;4832484;29;20066;-58
2023/09/06 17:22:31;;;;;;;;;;;;;;;;;;4841007;29;19932;-58
2023/09/06 17:24:59;;;;;;;;;;;;;;;;;;4832912;29;20369;-58
2023/09/06 17:27:29;;;;;;;;;;;;;;;;;;4826876;29;19928;-58
2023/09/06 17:29:55;;;;;;;;;;;;;;;;;;4830206;29;19933;-58
2023/09/06 17:32:22;;;;;;;;;;;;;;;;;;4828582;29;20485;-58
2023/09/06 17:34:49;;;;;;;;;;;;;;;;;;4828511;29;20505;-60
2023/09/06 17:37:16;;;;;;;;;;;;;;;;;;4833557;29;19932;-61
2023/09/06 17:39:43;;;;;;;;;;;;;;;;;;4837433;29;19943;-60
2023/09/06 17:42:10;;;;;;;;;;;;;;;;;;4830042;29;20093;-60
2023/09/06 17:44:37;;;;;;;;;;;;;;;;;;4828017;29;19936;-59
2023/09/06 17:47:06;;;;;;;;;;;;;;;;;;4832761;29;19933;-59
2023/09/06 17:49:33;;;;;;;;;;;;;;;;;;4826704;29;19932;-58
2023/09/06 17:52:00;;;;;;;;;;;;;;;;;;4832034;29;19928;-58
2023/09/06 17:54:28;;;;;;;;;;;;;;;;;;4833183;29;19929;-59
2023/09/06 17:56:55;;;;;;;;;;;;;;;;;;4830126;29;19932;-59
2023/09/06 17:59:24;;;;;;;;;;;;;;;;;;4820313;29;19933;-59
2023/09/06 18:01:51;;;;;;;;;;;;;;;;;;4828844;29;20391;-60
2023/09/06 18:04:22;;;;;;;;;;;;;;;;;;4839006;29;19928;-59
2023/09/06 18:06:48;;;;;;;;;;;;;;;;;;4829501;29;19928;-59
2023/09/06 18:09:15;;;;;;;;;;;;;;;;;;4831910;29;19929;-59
2023/09/06 18:11:41;;;;;;;;;;;;;;;;;;4828155;29;19929;-59
2023/09/06 18:14:09;;;;;;;;;;;;;;;;;;4839554;29;19985;-59
2023/09/06 18:16:41;;;;;;;;;;;;;;;;;;4835286;29;20031;-59
2023/09/06 18:19:08;;;;;;;;;;;;;;;;;;4829582;29;19928;-59
2023/09/06 18:21:34;;;;;;;;;;;;;;;;;;4838516;29;19939;-59
2023/09/06 18:24:04;;;;;;;;;;;;;;;;;;4832381;29;19933;-59
2023/09/06 18:26:30;;;;;;;;;;;;;;;;;;4833333;29;19928;-59
2023/09/06 18:28:57;;;;;;;;;;;;;;;;;;4827995;29;19964;-59
2023/09/06 18:31:24;;;;;;;;;;;;;;;;;;4829647;29;19928;-59
2023/09/06 18:33:50;;;;;;;;;;;;;;;;;;4839228;29;19928;-59
2023/09/06 18:36:17;;;;;;;;;;;;;;;;;;4834475;29;19931;-59
2023/09/06 18:38:44;;;;;;;;;;;;;;;;;;4827505;29;20371;-59
2023/09/06 18:41:10;;;;;;;;;;;;;;;;;;4833481;29;20303;-59
2023/09/06 18:43:37;;;;;;;;;;;;;;;;;;4834090;29;19954;-59
2023/09/06 18:46:04;;;;;;;;;;;;;;;;;;4825060;29;19990;-59
2023/09/06 18:48:31;;;;;;;;;;;;;;;;;;4829822;29;20404;-59
2023/09/06 18:50:58;;;;;;;;;;;;;;;;;;4839242;29;19937;-59
2023/09/06 18:53:26;;;;;;;;;;;;;;;;;;4818143;29;20015;-59
2023/09/06 18:55:53;;;;;;;;;;;;;;;;;;4833775;29;20479;-59
2023/09/06 18:58:21;;;;;;;;;;;;;;;;;;4819880;29;20403;-60
2023/09/06 19:00:48;;;;;;;;;;;;;;;;;;4826578;29;19932;-60
2023/09/06 19:03:15;;;;;;;;;;;;;;;;;;4838552;29;20299;-60
2023/09/06 19:05:42;;;;;;;;;;;;;;;;;;4824530;29;19937;-60
2023/09/06 19:08:11;;;;;;;;;;;;;;;;;;4825070;29;19989;-61
2023/09/06 19:10:38;;;;;;;;;;;;;;;;;;4809461;29;20451;-61
2023/09/06 19:13:05;;;;;;;;;;;;;;;;;;4827803;29;19940;-60
2023/09/06 19:15:32;;;;;;;;;;;;;;;;;;4838155;29;19938;-60
2023/09/06 19:17:59;;;;;;;;;;;;;;;;;;4828976;29;19973;-61
2023/09/06 19:20:27;;;;;;;;;;;;;;;;;;4821074;29;19933;-60
2023/09/06 19:22:54;;;;;;;;;;;;;;;;;;4829955;29;19933;-61
2023/09/06 19:25:24;;;;;;;;;;;;;;;;;;4835270;29;19959;-61
2023/09/06 19:27:51;;;;;;;;;;;;;;;;;;4826014;29;19932;-60
2023/09/06 19:30:17;;;;;;;;;;;;;;;;;;4823519;29;20455;-59
2023/09/06 19:32:44;;;;;;;;;;;;;;;;;;4829934;29;19947;-59
2023/09/06 19:35:11;;;;;;;;;;;;;;;;;;4833295;29;19960;-59
2023/09/06 19:37:38;;;;;;;;;;;;;;;;;;4828521;29;19943;-59
2023/09/06 19:40:04;;;;;;;;;;;;;;;;;;4827561;29;20027;-59
2023/09/06 19:42:33;;;;;;;;;;;;;;;;;;4833905;29;19937;-61
2023/09/06 19:45:00;;;;;;;;;;;;;;;;;;4832241;29;19978;-60
2023/09/06 19:47:27;;;;;;;;;;;;;;;;;;4827996;29;20366;-61
2023/09/06 19:49:55;;;;;;;;;;;;;;;;;;4811775;29;19933;-61
2023/09/06 19:52:22;;;;;;;;;;;;;;;;;;4829332;29;20798;-61
2023/09/06 19:54:48;;;;;;;;;;;;;;;;;;4831663;29;19936;-60
2023/09/06 19:57:16;;;;;;;;;;;;;;;;;;4835202;29;19933;-59
2023/09/06 19:59:42;;;;;;;;;;;;;;;;;;4827025;29;19937;-61
2023/09/06 20:02:09;;;;;;;;;;;;;;;;;;4835403;29;19940;-61
2023/09/06 20:04:35;;;;;;;;;;;;;;;;;;4831435;29;19980;-59
2023/09/06 20:07:03;;;;;;;;;;;;;;;;;;4831323;29;20024;-59
2023/09/06 20:09:30;;;;;;;;;;;;;;;;;;4837910;29;20340;-59
2023/09/06 20:11:56;;;;;;;;;;;;;;;;;;4832033;29;19935;-59
2023/09/06 20:14:27;;;;;;;;;;;;;;;;;;4836079;29;19964;-59
2023/09/06 20:16:53;;;;;;;;;;;;;;;;;;4834125;29;19933;-59
2023/09/06 20:19:20;;;;;;;;;;;;;;;;;;4824443;29;20364;-59
2023/09/06 20:21:47;;;;;;;;;;;;;;;;;;4834086;29;20015;-59
2023/09/06 20:24:14;;;;;;;;;;;;;;;;;;4835475;29;19959;-59
2023/09/06 20:26:41;;;;;;;;;;;;;;;;;;4842723;29;19932;-59
2023/09/06 20:29:06;;;;;;;;;;;;;;;;;;4828237;29;19999;-59
2023/09/06 20:31:33;;;;;;;;;;;;;;;;;;4826433;29;20377;-59
2023/09/06 20:34:00;;;;;;;;;;;;;;;;;;4826001;29;19929;-59
2023/09/06 20:36:26;;;;;;;;;;;;;;;;;;4828517;29;20027;-59
2023/09/06 20:38:53;;;;;;;;;;;;;;;;;;4830640;29;19936;-59
2023/09/06 20:41:20;;;;;;;;;;;;;;;;;;4832216;29;19937;-59
2023/09/06 20:43:46;;;;;;;;;;;;;;;;;;4836769;29;19937;-60
2023/09/06 20:46:13;;;;;;;;;;;;;;;;;;4828176;29;19933;-60
2023/09/06 20:48:44;;;;;;;;;;;;;;;;;;4833737;29;19940;-61
2023/09/06 20:51:13;;;;;;;;;;;;;;;;;;4833654;29;19940;-61
2023/09/06 20:53:40;;;;;;;;;;;;;;;;;;4835896;29;19932;-61
2023/09/06 20:56:07;;;;;;;;;;;;;;;;;;4825732;29;20023;-61
2023/09/06 20:58:34;;;;;;;;;;;;;;;;;;4826084;29;20016;-60
2023/09/06 21:01:00;;;;;;;;;;;;;;;;;;4830461;29;19956;-61
2023/09/06 21:03:27;;;;;;;;;;;;;;;;;;4833523;29;19939;-61
2023/09/06 21:05:53;;;;;;;;;;;;;;;;;;4833996;29;19929;-61
2023/09/06 21:08:20;;;;;;;;;;;;;;;;;;4824277;29;19928;-60
2023/09/06 21:10:46;;;;;;;;;;;;;;;;;;4821800;29;20019;-60
2023/09/06 21:13:13;;;;;;;;;;;;;;;;;;4835798;29;19932;-61
2023/09/06 21:15:39;;;;;;;;;;;;;;;;;;4831374;29;19940;-60
2023/09/06 21:18:06;;;;;;;;;;;;;;;;;;4830135;29;19932;-60
2023/09/06 21:20:33;;;;;;;;;;;;;;;;;;4839754;29;20038;-60
2023/09/06 21:22:59;;;;;;;;;;;;;;;;;;4829444;29;20459;-61
2023/09/06 21:25:27;;;;;;;;;;;;;;;;;;4830288;29;19935;-60
2023/09/06 21:27:53;;;;;;;;;;;;;;;;;;4830831;29;19937;-60
2023/09/06 21:30:20;;;;;;;;;;;;;;;;;;4827173;29;19936;-60
2023/09/06 21:32:46;;;;;;;;;;;;;;;;;;4832704;29;20027;-60
2023/09/06 21:35:13;;;;;;;;;;;;;;;;;;4824500;29;19979;-60
2023/09/06 21:37:39;;;;;;;;;;;;;;;;;;4816574;29;20384;-60
2023/09/06 21:40:06;;;;;;;;;;;;;;;;;;4828368;29;19929;-60
2023/09/06 21:42:32;;;;;;;;;;;;;;;;;;4835582;29;19928;-61
2023/09/06 21:44:59;;;;;;;;;;;;;;;;;;4826732;29;20305;-61
2023/09/06 21:47:25;;;;;;;;;;;;;;;;;;4827723;29;19938;-60
2023/09/06 21:49:51;;;;;;;;;;;;;;;;;;4833522;29;19933;-59
2023/09/06 21:52:18;;;;;;;;;;;;;;;;;;4828063;29;20306;-59
2023/09/06 21:54:44;;;;;;;;;;;;;;;;;;4829836;29;19932;-59
2023/09/06 21:57:11;;;;;;;;;;;;;;;;;;4831177;29;20035;-59
2023/09/06 21:59:37;;;;;;;;;;;;;;;;;;4831407;29;19964;-59
2023/09/06 22:02:04;;;;;;;;;;;;;;;;;;4833978;29;19932;-59
2023/09/06 22:04:49;;;;;;;;;;;;;;;;;;4826025;29;20386;-61
2023/09/06 22:07:34;;;;;;;;;;;;;;;;;;4830613;29;20383;-61
2023/09/06 22:10:19;;;;;;;;;;;;;;;;;;4834335;29;19933;-59
2023/09/06 22:13:04;;;;;;;;;;;;;;;;;;4833181;29;20053;-60
2023/09/06 22:15:30;;;;;;;;;;;;;;;;;;4827916;29;19936;-59
2023/09/06 22:17:57;;;;;;;;;;;;;;;;;;4826974;29;20413;-58
2023/09/06 22:20:24;;;;;;;;;;;;;;;;;;4832626;29;20416;-61
2023/09/06 22:22:50;;;;;;;;;;;;;;;;;;4836323;29;20399;-59
2023/09/06 22:25:17;;;;;;;;;;;;;;;;;;4833328;29;19929;-59
2023/09/06 22:27:43;;;;;;;;;;;;;;;;;;4828565;29;19932;-59
2023/09/06 22:30:10;;;;;;;;;;;;;;;;;;4827264;29;19933;-59
2023/09/06 22:32:37;;;;;;;;;;;;;;;;;;4827406;29;20052;-59
2023/09/06 22:35:04;;;;;;;;;;;;;;;;;;4810183;29;19940;-59
2023/09/06 22:37:34;;;;;;;;;;;;;;;;;;4819068;29;20347;-59
2023/09/06 22:40:01;;;;;;;;;;;;;;;;;;4833721;29;19989;-59
2023/09/06 22:42:27;;;;;;;;;;;;;;;;;;4833511;29;20427;-59
2023/09/06 22:44:54;;;;;;;;;;;;;;;;;;4831933;29;19935;-59
2023/09/06 22:47:20;;;;;;;;;;;;;;;;;;4831467;29;19929;-59
2023/09/06 22:49:47;;;;;;;;;;;;;;;;;;4829360;29;19938;-58
2023/09/06 22:52:13;;;;;;;;;;;;;;;;;;4827761;29;19939;-59
2023/09/06 22:54:40;;;;;;;;;;;;;;;;;;4824767;29;19944;-59
2023/09/06 22:57:06;;;;;;;;;;;;;;;;;;4839795;29;20391;-59
2023/09/06 22:59:33;;;;;;;;;;;;;;;;;;4827838;29;20371;-59
2023/09/06 23:02:00;;;;;;;;;;;;;;;;;;4808011;29;20320;-59
2023/09/06 23:04:26;;;;;;;;;;;;;;;;;;4814164;29;19935;-59
2023/09/06 23:06:53;;;;;;;;;;;;;;;;;;4825572;29;19935;-59
2023/09/06 23:09:19;;;;;;;;;;;;;;;;;;4831688;29;19935;-59
2023/09/06 23:11:45;;;;;;;;;;;;;;;;;;4833425;29;19937;-60
2023/09/06 23:14:17;;;;;;;;;;;;;;;;;;4836164;29;20336;-59
2023/09/06 23:16:47;;;;;;;;;;;;;;;;;;4829439;29;19932;-59
2023/09/06 23:19:17;;;;;;;;;;;;;;;;;;4829335;29;19951;-59
2023/09/06 23:21:43;;;;;;;;;;;;;;;;;;4826526;29;21292;-59
2023/09/06 23:24:11;;;;;;;;;;;;;;;;;;4827865;29;20048;-59
2023/09/06 23:26:38;;;;;;;;;;;;;;;;;;4831173;29;19928;-59
2023/09/06 23:29:07;;;;;;;;;;;;;;;;;;4834444;29;19932;-59
2023/09/06 23:31:36;;;;;;;;;;;;;;;;;;4814785;29;19972;-59
2023/09/06 23:34:09;;;;;;;;;;;;;;;;;;4832480;29;19985;-59
2023/09/06 23:36:37;;;;;;;;;;;;;;;;;;4833969;29;19983;-59
2023/09/06 23:39:04;;;;;;;;;;;;;;;;;;4825241;29;20008;-59
2023/09/06 23:41:31;;;;;;;;;;;;;;;;;;4824811;29;19989;-59
2023/09/06 23:44:02;;;;;;;;;;;;;;;;;;4827129;29;19979;-59
2023/09/06 23:46:28;;;;;;;;;;;;;;;;;;4833699;29;19932;-59
2023/09/06 23:48:56;;;;;;;;;;;;;;;;;;4827970;29;19943;-59
2023/09/06 23:51:23;;;;;;;;;;;;;;;;;;4824927;29;19928;-59
2023/09/06 23:53:49;;;;;;;;;;;;;;;;;;4827761;29;19948;-59
2023/09/06 23:56:17;;;;;;;;;;;;;;;;;;4826916;29;19937;-59
2023/09/06 23:58:43;;;;;;;;;;;;;;;;;;4828739;29;19940;-59
